Time;durP1;ratioP1;P1;durP2;ratioP2;P2;SDS_P1;SDS_P2;PMS_P1;PMS_P2;Temp;Humidity;BMP_temperature;BMP_pressure;BME280_temperature;BME280_humidity;BME280_pressure;Samples;Min_cycle;Max_cycle;Signal;HPM_P1;HPM_P2
2022/03/24 00:00:26;;;;;;;0.00;0.00;;;7.70;99.90;;;;;;5042738;28;20048;-65
2022/03/24 00:02:52;;;;;;;0.10;0.10;;;7.60;99.90;;;;;;5054343;28;20041;-65
2022/03/24 00:05:17;;;;;;;0.00;0.00;;;7.70;99.90;;;;;;5043126;28;20049;-65
2022/03/24 00:07:43;;;;;;;0.00;0.00;;;7.70;99.90;;;;;;5040800;28;20084;-65
2022/03/24 00:10:10;;;;;;;0.00;0.00;;;7.60;99.90;;;;;;5043361;28;20750;-65
2022/03/24 00:12:35;;;;;;;0.00;0.00;;;7.60;99.90;;;;;;5042856;28;20052;-66
2022/03/24 00:15:05;;;;;;;0.00;0.00;;;7.50;99.90;;;;;;5025292;28;20455;-65
2022/03/24 00:17:32;;;;;;;0.00;0.00;;;7.40;99.90;;;;;;5043081;28;20080;-65
2022/03/24 00:19:58;;;;;;;0.22;0.22;;;7.60;99.90;;;;;;5042557;28;20044;-65
2022/03/24 00:22:24;;;;;;;0.00;0.00;;;7.30;99.90;;;;;;5024253;28;20140;-65
2022/03/24 00:24:49;;;;;;;0.00;0.00;;;7.30;99.90;;;;;;5041812;28;20041;-66
2022/03/24 00:27:15;;;;;;;0.10;0.00;;;8.10;99.90;;;;;;5043195;28;20452;-67
2022/03/24 00:29:42;;;;;;;0.00;0.00;;;7.20;99.90;;;;;;5042649;28;20068;-67
2022/03/24 00:32:08;;;;;;;0.00;0.00;;;7.20;99.90;;;;;;5042841;28;20075;-67
2022/03/24 00:34:34;;;;;;;0.00;0.00;;;7.10;99.90;;;;;;5024441;28;20499;-67
2022/03/24 00:37:00;;;;;;;0.00;0.00;;;7.00;99.90;;;;;;5042246;28;20041;-67
2022/03/24 00:39:26;;;;;;;0.10;0.10;;;7.00;99.90;;;;;;5042548;28;20045;-67
2022/03/24 00:41:52;;;;;;;0.00;0.00;;;7.00;99.90;;;;;;5041680;28;20099;-65
2022/03/24 00:44:19;;;;;;;0.10;0.10;;;7.00;99.90;;;;;;5024824;28;20053;-65
2022/03/24 00:46:45;;;;;;;0.00;0.00;;;7.00;99.90;;;;;;5041998;28;20040;-65
2022/03/24 00:49:11;;;;;;;0.08;0.08;;;7.00;99.90;;;;;;5042357;28;20115;-65
2022/03/24 00:51:36;;;;;;;0.00;0.00;;;7.00;99.90;;;;;;5023209;28;20048;-65
2022/03/24 00:54:03;;;;;;;0.00;0.00;;;7.00;99.90;;;;;;5042121;28;20056;-65
2022/03/24 00:56:28;;;;;;;0.00;0.00;;;7.00;99.90;;;;;;5024873;28;20106;-66
2022/03/24 00:58:55;;;;;;;0.00;0.00;;;7.00;99.90;;;;;;5041588;28;20048;-66
2022/03/24 01:01:21;;;;;;;0.20;0.13;;;7.00;99.90;;;;;;5026206;28;20128;-65
2022/03/24 01:03:48;;;;;;;0.00;0.00;;;7.00;99.90;;;;;;5050424;28;20428;-66
2022/03/24 01:06:16;;;;;;;0.10;0.10;;;8.10;99.90;;;;;;5040377;28;20489;-65
2022/03/24 01:08:43;;;;;;;0.00;0.00;;;6.80;99.90;;;;;;5023212;28;20065;-65
2022/03/24 01:11:08;;;;;;;0.00;0.00;;;6.70;99.90;;;;;;5042315;28;20512;-65
2022/03/24 01:13:35;;;;;;;0.20;0.20;;;6.70;99.90;;;;;;5042465;28;20088;-65
2022/03/24 01:16:03;;;;;;;0.00;0.00;;;6.70;99.90;;;;;;5024016;28;20052;-66
2022/03/24 01:18:30;;;;;;;0.00;0.00;;;6.60;99.90;;;;;;5042003;28;20045;-65
2022/03/24 01:20:56;;;;;;;0.03;0.03;;;6.60;99.90;;;;;;5023293;28;20864;-65
2022/03/24 01:23:23;;;;;;;0.00;0.00;;;6.60;99.90;;;;;;5041686;28;20134;-65
2022/03/24 01:25:49;;;;;;;0.00;0.00;;;6.50;99.90;;;;;;5041277;28;20037;-65
2022/03/24 01:28:15;;;;;;;0.00;0.00;;;6.50;99.90;;;;;;5041951;28;20056;-65
2022/03/24 01:30:41;;;;;;;0.00;0.00;;;6.40;99.90;;;;;;5041603;28;20033;-65
2022/03/24 01:33:08;;;;;;;0.17;0.15;;;6.40;99.90;;;;;;5041225;28;20060;-65
2022/03/24 01:35:34;;;;;;;0.00;0.00;;;6.40;99.90;;;;;;5042236;28;20479;-65
2022/03/24 01:38:00;;;;;;;0.10;0.10;;;6.40;99.90;;;;;;5041137;28;20049;-65
2022/03/24 01:40:26;;;;;;;0.00;0.00;;;6.50;99.90;;;;;;5024254;28;20045;-65
2022/03/24 01:42:52;;;;;;;0.00;0.00;;;6.40;99.90;;;;;;5040978;28;20643;-65
2022/03/24 01:45:18;;;;;;;0.00;0.00;;;6.40;99.90;;;;;;5041887;28;20037;-65
2022/03/24 01:47:45;;;;;;;0.00;0.00;;;6.40;99.90;;;;;;5041289;28;20547;-65
2022/03/24 01:50:11;;;;;;;0.00;0.00;;;6.40;99.90;;;;;;5041370;28;20067;-65
2022/03/24 01:52:37;;;;;;;0.00;0.00;;;6.40;99.90;;;;;;5023018;28;20056;-65
2022/03/24 01:55:05;;;;;;;0.00;0.00;;;6.40;99.90;;;;;;5041940;28;20099;-65
2022/03/24 01:57:31;;;;;;;0.00;0.00;;;6.40;99.90;;;;;;5042077;28;20048;-65
2022/03/24 01:59:59;;;;;;;0.00;0.00;;;6.40;99.90;;;;;;5022785;28;20047;-65
2022/03/24 02:02:25;;;;;;;0.00;0.00;;;6.30;99.90;;;;;;5051569;28;20098;-65
2022/03/24 02:04:50;;;;;;;0.00;0.00;;;6.30;99.90;;;;;;5042502;28;20051;-67
2022/03/24 02:07:16;;;;;;;0.00;0.00;;;6.20;99.90;;;;;;5040588;28;20049;-66
2022/03/24 02:09:42;;;;;;;0.00;0.00;;;6.20;99.90;;;;;;5023494;28;20053;-65
2022/03/24 02:12:10;;;;;;;0.00;0.00;;;6.30;99.90;;;;;;5023852;28;20118;-66
2022/03/24 02:14:37;;;;;;;0.00;0.00;;;6.20;99.90;;;;;;5040559;22;20507;-65
2022/03/24 02:17:04;;;;;;;0.30;0.30;;;6.10;99.90;;;;;;5026832;28;20053;-64
2022/03/24 02:19:31;;;;;;;0.00;0.00;;;6.00;99.90;;;;;;5034171;28;20092;-65
2022/03/24 02:22:01;;;;;;;0.00;0.00;;;6.00;99.90;;;;;;5044430;28;20045;-65
2022/03/24 02:24:27;;;;;;;0.00;0.00;;;5.90;99.90;;;;;;5045063;28;20129;-66
2022/03/24 02:26:54;;;;;;;0.00;0.00;;;5.90;99.90;;;;;;5045277;28;20122;-65
2022/03/24 02:29:25;;;;;;;0.00;0.00;;;5.60;99.90;;;;;;5045645;28;20044;-65
2022/03/24 02:31:51;;;;;;;0.00;0.00;;;5.80;99.90;;;;;;5044367;28;20512;-66
2022/03/24 02:37:11;;;;;;;0.00;0.00;;;5.80;99.90;;;;;;5044598;28;20047;-66
2022/03/24 02:39:45;;;;;;;0.00;0.00;;;5.80;99.90;;;;;;5045092;28;20045;-66
2022/03/24 02:42:14;;;;;;;0.00;0.00;;;5.70;99.90;;;;;;5045320;28;20044;-65
2022/03/24 02:44:45;;;;;;;0.00;0.00;;;5.70;99.90;;;;;;5044335;28;20099;-65
2022/03/24 02:47:12;;;;;;;0.00;0.00;;;5.70;99.90;;;;;;5045295;28;20159;-65
2022/03/24 02:49:38;;;;;;;0.00;0.00;;;5.80;99.90;;;;;;5045044;28;20106;-66
2022/03/24 02:52:05;;;;;;;0.00;0.00;;;5.60;99.90;;;;;;5044231;28;20041;-65
2022/03/24 02:54:31;;;;;;;0.00;0.00;;;5.60;99.90;;;;;;5045114;28;20045;-66
2022/03/24 02:56:57;;;;;;;0.00;0.00;;;5.60;99.90;;;;;;5044387;28;20073;-65
2022/03/24 02:59:23;;;;;;;0.00;0.00;;;6.80;99.90;;;;;;5044774;28;20072;-66
2022/03/24 03:01:55;;;;;;;0.00;0.00;;;5.60;99.90;;;;;;5037531;28;20049;-65
2022/03/24 03:04:21;;;;;;;0.00;0.00;;;5.60;99.90;;;;;;5023653;28;20041;-65
2022/03/24 03:06:47;;;;;;;0.00;0.00;;;5.60;99.90;;;;;;5022668;28;20046;-67
2022/03/24 03:09:15;;;;;;;0.00;0.00;;;5.60;99.90;;;;;;5024252;28;20507;-67
2022/03/24 03:11:43;;;;;;;0.00;0.00;;;5.60;99.90;;;;;;5024182;28;20131;-67
2022/03/24 03:14:11;;;;;;;0.00;0.00;;;5.60;99.90;;;;;;5024739;28;20080;-66
2022/03/24 03:16:38;;;;;;;0.00;0.00;;;5.60;99.90;;;;;;5024644;28;20089;-66
2022/03/24 03:19:04;;;;;;;0.00;0.00;;;6.20;99.90;;;;;;5006806;28;20052;-66
2022/03/24 03:21:29;;;;;;;0.00;0.00;;;5.60;99.90;;;;;;5024000;28;20049;-66
2022/03/24 03:23:55;;;;;;;0.00;0.00;;;5.60;99.90;;;;;;5024066;28;20045;-66
2022/03/24 03:26:23;;;;;;;0.00;0.00;;;6.10;99.90;;;;;;5024238;28;20115;-67
2022/03/24 03:28:52;;;;;;;0.00;0.00;;;5.60;99.90;;;;;;5023026;28;20053;-66
2022/03/24 03:31:19;;;;;;;0.00;0.00;;;5.60;99.90;;;;;;5024612;28;20037;-66
2022/03/24 03:33:45;;;;;;;0.00;0.00;;;5.50;99.90;;;;;;5005820;28;20049;-66
2022/03/24 03:36:11;;;;;;;0.00;0.00;;;5.50;99.90;;;;;;5023722;28;20034;-66
2022/03/24 03:38:37;;;;;;;0.00;0.00;;;5.40;99.90;;;;;;5023933;28;20061;-66
2022/03/24 03:41:02;;;;;;;0.00;0.00;;;6.10;99.90;;;;;;5024430;28;20585;-66
2022/03/24 03:43:29;;;;;;;0.00;0.00;;;5.30;99.90;;;;;;5023898;28;20052;-66
2022/03/24 03:45:55;;;;;;;0.00;0.00;;;5.30;99.90;;;;;;5023750;28;20491;-66
2022/03/24 03:48:21;;;;;;;0.00;0.00;;;5.20;99.90;;;;;;5024284;28;20092;-67
2022/03/24 03:50:48;;;;;;;0.00;0.00;;;5.20;99.90;;;;;;5022806;28;20056;-66
2022/03/24 03:53:14;;;;;;;0.00;0.00;;;5.20;99.90;;;;;;5023686;28;20075;-66
2022/03/24 03:55:40;;;;;;;0.00;0.00;;;5.20;99.90;;;;;;5023735;28;20045;-66
2022/03/24 03:58:06;;;;;;;0.10;0.10;;;5.20;99.90;;;;;;5023676;28;20041;-66
2022/03/24 04:03:17;;;;;;;0.00;0.00;;;5.10;99.90;;;;;;5029091;28;20049;-66
2022/03/24 04:05:43;;;;;;;0.00;0.00;;;5.10;99.90;;;;;;5042981;28;20400;-66
2022/03/24 04:08:10;;;;;;;0.00;0.00;;;5.00;99.90;;;;;;5043353;28;20045;-67
2022/03/24 04:10:38;;;;;;;0.00;0.00;;;5.00;99.90;;;;;;5025635;28;20076;-66
2022/03/24 04:13:04;;;;;;;0.00;0.00;;;5.00;99.90;;;;;;5043795;28;20055;-67
2022/03/24 04:15:31;;;;;;;0.00;0.00;;;5.00;99.90;;;;;;5025218;28;20088;-67
2022/03/24 04:17:57;;;;;;;0.00;0.00;;;5.00;99.90;;;;;;5042993;28;20047;-66
2022/03/24 04:20:23;;;;;;;0.00;0.00;;;4.90;99.90;;;;;;5024764;28;20132;-64
2022/03/24 04:22:50;;;;;;;0.00;0.00;;;4.80;99.90;;;;;;5043191;28;20527;-65
2022/03/24 04:25:22;;;;;;;0.00;0.00;;;4.70;99.90;;;;;;5008421;28;20136;-65
2022/03/24 04:27:49;;;;;;;0.00;0.00;;;4.70;99.90;;;;;;5043146;28;20049;-65
2022/03/24 04:30:16;;;;;;;0.00;0.00;;;5.10;99.90;;;;;;5043188;28;20091;-65
2022/03/24 04:32:43;;;;;;;0.00;0.00;;;4.70;99.90;;;;;;5042149;28;20459;-66
2022/03/24 04:35:09;;;;;;;0.00;0.00;;;4.70;99.90;;;;;;5043239;28;20053;-65
2022/03/24 04:37:36;;;;;;;0.00;0.00;;;4.70;99.90;;;;;;5042290;28;20044;-65
2022/03/24 04:40:03;;;;;;;0.00;0.00;;;4.80;99.90;;;;;;5042589;28;20407;-66
2022/03/24 04:42:29;;;;;;;0.00;0.00;;;4.70;99.90;;;;;;5043176;28;20470;-65
2022/03/24 04:44:56;;;;;;;0.00;0.00;;;4.70;99.90;;;;;;5042438;28;20098;-65
2022/03/24 04:47:22;;;;;;;0.00;0.00;;;4.70;99.90;;;;;;5024769;28;20080;-66
2022/03/24 04:49:48;;;;;;;0.00;0.00;;;4.60;99.90;;;;;;5041939;28;20530;-65
2022/03/24 04:52:13;;;;;;;0.30;0.30;;;4.50;99.90;;;;;;5042179;28;20063;-65
2022/03/24 04:54:39;;;;;;;0.00;0.00;;;4.50;99.90;;;;;;5042433;28;20045;-65
2022/03/24 04:57:05;;;;;;;0.00;0.00;;;4.50;99.90;;;;;;5042485;28;20107;-66
2022/03/24 04:59:31;;;;;;;0.00;0.00;;;4.40;99.90;;;;;;5025381;28;20044;-65
2022/03/24 05:01:56;;;;;;;0.00;0.00;;;4.40;99.90;;;;;;5035780;28;20041;-66
2022/03/24 05:04:23;;;;;;;0.00;0.00;;;4.30;99.90;;;;;;5027745;28;20042;-66
2022/03/24 05:06:50;;;;;;;0.00;0.00;;;4.30;99.90;;;;;;5021172;28;20087;-65
2022/03/24 05:09:16;;;;;;;0.00;0.00;;;4.30;99.90;;;;;;5005053;28;20100;-65
2022/03/24 05:11:42;;;;;;;0.00;0.00;;;4.30;99.90;;;;;;5022328;28;20107;-65
2022/03/24 05:14:08;;;;;;;0.00;0.00;;;4.30;99.90;;;;;;5022061;28;20045;-66
2022/03/24 05:16:34;;;;;;;0.00;0.00;;;4.30;99.90;;;;;;5022540;28;20060;-66
2022/03/24 05:19:00;;;;;;;0.00;0.00;;;4.30;99.90;;;;;;5022867;28;20037;-65
2022/03/24 05:21:26;;;;;;;0.00;0.00;;;4.20;99.90;;;;;;5021692;28;20527;-67
2022/03/24 05:23:52;;;;;;;0.00;0.00;;;4.30;99.90;;;;;;5021268;28;20045;-65
2022/03/24 05:26:20;;;;;;;0.00;0.00;;;4.40;99.90;;;;;;5022113;28;20112;-65
2022/03/24 05:28:47;;;;;;;0.00;0.00;;;4.40;99.90;;;;;;5021592;28;20057;-65
2022/03/24 05:31:12;;;;;;;0.00;0.00;;;4.40;99.90;;;;;;5022058;28;20056;-66
2022/03/24 05:33:38;;;;;;;0.00;0.00;;;4.30;99.90;;;;;;5021603;28;20443;-65
2022/03/24 05:36:05;;;;;;;0.00;0.00;;;4.30;99.90;;;;;;5021908;28;20044;-66
2022/03/24 05:38:31;;;;;;;0.00;0.00;;;4.60;99.90;;;;;;5022675;28;20038;-66
2022/03/24 05:40:57;;;;;;;0.00;0.00;;;4.30;99.90;;;;;;5021440;28;20397;-66
2022/03/24 05:43:23;;;;;;;0.00;0.00;;;4.20;99.90;;;;;;5022529;28;20183;-67
2022/03/24 05:45:49;;;;;;;0.00;0.00;;;4.20;99.90;;;;;;5021692;28;20507;-68
2022/03/24 05:48:15;;;;;;;0.00;0.00;;;4.20;99.90;;;;;;5022467;28;20081;-67
2022/03/24 05:50:41;;;;;;;0.00;0.00;;;4.30;99.90;;;;;;5020671;28;20079;-68
2022/03/24 05:53:07;;;;;;;0.00;0.00;;;4.30;99.90;;;;;;5007380;28;20117;-69
2022/03/24 05:55:35;;;;;;;0.00;0.00;;;4.40;99.90;;;;;;5026545;28;20053;-68
2022/03/24 05:58:01;;;;;;;0.00;0.00;;;4.50;99.90;;;;;;5008142;28;20057;-68
2022/03/24 06:00:26;;;;;;;0.00;0.00;;;4.60;99.90;;;;;;5026591;28;20052;-68
2022/03/24 06:02:54;;;;;;;0.00;0.00;;;4.60;99.90;;;;;;5036655;28;20045;-65
2022/03/24 06:05:21;;;;;;;0.00;0.00;;;4.60;99.90;;;;;;5025434;28;20052;-68
2022/03/24 06:07:47;;;;;;;0.00;0.00;;;4.70;99.90;;;;;;5024994;28;20076;-68
2022/03/24 06:10:13;;;;;;;0.00;0.00;;;4.70;99.90;;;;;;5025774;28;20068;-68
2022/03/24 06:12:40;;;;;;;0.00;0.00;;;5.10;99.90;;;;;;5025562;28;20047;-68
2022/03/24 06:15:06;;;;;;;0.00;0.00;;;4.80;99.90;;;;;;5024665;28;20083;-68
2022/03/24 06:17:32;;;;;;;0.00;0.00;;;4.80;99.90;;;;;;5026071;28;20475;-68
2022/03/24 06:19:58;;;;;;;0.00;0.00;;;4.80;99.90;;;;;;5025293;28;20053;-68
2022/03/24 06:22:24;;;;;;;0.00;0.00;;;4.80;99.90;;;;;;5024663;28;20060;-69
2022/03/24 06:24:49;;;;;;;0.00;0.00;;;5.00;99.90;;;;;;5024592;28;20045;-68
2022/03/24 06:27:17;;;;;;;0.00;0.00;;;5.10;99.90;;;;;;5025305;28;20069;-68
2022/03/24 06:29:43;;;;;;;0.00;0.00;;;5.10;99.90;;;;;;5025270;28;20045;-66
2022/03/24 06:32:09;;;;;;;0.00;0.00;;;5.20;99.90;;;;;;5024887;28;20212;-68
2022/03/24 06:34:34;;;;;;;0.00;0.00;;;5.60;99.90;;;;;;5025616;28;20080;-63
2022/03/24 06:37:02;;;;;;;0.00;0.00;;;5.50;99.90;;;;;;5025007;28;20072;-68
2022/03/24 06:39:28;;;;;;;0.00;0.00;;;5.60;99.90;;;;;;5025366;28;20051;-68
2022/03/24 06:41:54;;;;;;;0.00;0.00;;;5.80;99.90;;;;;;5024166;28;20571;-68
2022/03/24 06:44:20;;;;;;;0.00;0.00;;;6.00;99.90;;;;;;5025236;28;20121;-68
2022/03/24 06:46:46;;;;;;;0.00;0.00;;;6.10;99.90;;;;;;5006881;28;20508;-68
2022/03/24 06:49:12;;;;;;;0.00;0.00;;;6.20;99.90;;;;;;5024858;28;20060;-68
2022/03/24 06:51:37;;;;;;;0.10;0.10;;;6.30;99.90;;;;;;5006330;28;20391;-68
2022/03/24 06:54:04;;;;;;;0.00;0.00;;;6.30;99.90;;;;;;5025332;28;20049;-69
2022/03/24 06:56:30;;;;;;;0.00;0.00;;;6.30;99.90;;;;;;5025116;28;20048;-67
2022/03/24 06:58:55;;;;;;;0.00;0.00;;;6.50;99.90;;;;;;5024052;28;20049;-68
2022/03/24 07:01:21;;;;;;;0.00;0.00;;;6.40;99.90;;;;;;5027808;28;20065;-68
2022/03/24 07:03:47;;;;;;;0.00;0.00;;;6.50;99.90;;;;;;5032953;28;20395;-67
2022/03/24 07:06:13;;;;;;;0.00;0.00;;;6.60;99.90;;;;;;5024210;28;20044;-67
2022/03/24 07:08:39;;;;;;;0.00;0.00;;;6.70;99.90;;;;;;5006151;28;20077;-64
2022/03/24 07:11:06;;;;;;;0.00;0.00;;;6.90;99.90;;;;;;5024496;28;20112;-68
2022/03/24 07:13:32;;;;;;;0.00;0.00;;;6.90;99.90;;;;;;5024760;28;20065;-65
2022/03/24 07:15:57;;;;;;;0.00;0.00;;;7.00;99.90;;;;;;5023560;28;20068;-66
2022/03/24 07:18:23;;;;;;;0.00;0.00;;;7.00;99.90;;;;;;5024643;28;20045;-65
2022/03/24 07:20:50;;;;;;;0.00;0.00;;;7.10;99.90;;;;;;5023495;28;20045;-65
2022/03/24 07:23:16;;;;;;;0.00;0.00;;;7.30;99.90;;;;;;5024276;28;20054;-66
2022/03/24 07:25:43;;;;;;;0.00;0.00;;;7.50;99.90;;;;;;5023704;28;20045;-65
2022/03/24 07:28:14;;;;;;;0.00;0.00;;;7.40;99.90;;;;;;5023051;28;20053;-67
2022/03/24 07:30:40;;;;;;;0.00;0.00;;;7.60;99.90;;;;;;5024060;28;20061;-65
2022/03/24 07:33:07;;;;;;;0.00;0.00;;;7.60;99.90;;;;;;5023822;28;20286;-65
2022/03/24 07:35:34;;;;;;;0.00;0.00;;;7.70;99.90;;;;;;5023962;28;20049;-64
2022/03/24 07:38:00;;;;;;;0.00;0.00;;;7.80;99.90;;;;;;5024072;28;20584;-65
2022/03/24 07:40:25;;;;;;;0.00;0.00;;;7.90;99.90;;;;;;5024053;28;20068;-65
2022/03/24 07:42:53;;;;;;;0.00;0.00;;;8.00;99.90;;;;;;5023365;28;20041;-65
2022/03/24 07:45:20;;;;;;;0.00;0.00;;;8.10;99.90;;;;;;5024101;28;20053;-65
2022/03/24 07:48:06;;;;;;;0.00;0.00;;;8.20;99.90;;;;;;5023280;28;20690;-66
2022/03/24 07:50:32;;;;;;;0.00;0.00;;;8.30;99.90;;;;;;5023530;28;20600;-67
2022/03/24 07:53:25;;;;;;;0.00;0.00;;;8.40;99.90;;;;;;5023338;28;20033;-65
2022/03/24 07:55:51;;;;;;;0.00;0.00;;;8.60;99.90;;;;;;4982184;28;20053;-65
2022/03/24 07:58:17;;;;;;;0.00;0.00;;;8.70;99.90;;;;;;5006011;28;20045;-65
2022/03/24 08:00:44;;;;;;;0.00;0.00;;;8.80;99.90;;;;;;5023723;28;20148;-62
2022/03/24 08:03:12;;;;;;;0.00;0.00;;;9.00;99.90;;;;;;5027527;28;20029;-65
2022/03/24 08:05:38;;;;;;;0.00;0.00;;;9.10;99.90;;;;;;5025090;28;20261;-65
2022/03/24 08:08:09;;;;;;;0.10;0.10;;;9.20;99.90;;;;;;5043739;28;20075;-65
2022/03/24 08:10:36;;;;;;;0.00;0.00;;;9.30;99.90;;;;;;5042722;28;20118;-65
2022/03/24 08:13:03;;;;;;;0.00;0.00;;;9.40;99.90;;;;;;5043769;28;20271;-66
2022/03/24 08:15:28;;;;;;;0.00;0.00;;;9.60;99.90;;;;;;5042318;28;20136;-67
2022/03/24 08:17:54;;;;;;;0.00;0.00;;;9.70;99.90;;;;;;5042043;28;20137;-66
2022/03/24 08:20:20;;;;;;;0.00;0.00;;;9.80;99.90;;;;;;5042310;28;20626;-66
2022/03/24 08:22:45;;;;;;;0.00;0.00;;;9.90;99.90;;;;;;5042624;28;20041;-66
2022/03/24 08:25:11;;;;;;;0.00;0.00;;;10.00;99.90;;;;;;5043040;28;20064;-66
2022/03/24 08:27:37;;;;;;;0.00;0.00;;;10.10;99.90;;;;;;5042545;28;20706;-66
2022/03/24 08:30:04;;;;;;;0.00;0.00;;;10.20;99.90;;;;;;5043089;28;20110;-67
2022/03/24 08:32:30;;;;;;;0.00;0.00;;;10.30;99.90;;;;;;5043845;28;20045;-66
2022/03/24 08:34:55;;;;;;;0.10;0.10;;;10.30;99.90;;;;;;5041992;28;20052;-66
2022/03/24 08:37:21;;;;;;;0.00;0.00;;;10.40;99.90;;;;;;5042614;28;20102;-67
2022/03/24 08:39:47;;;;;;;0.00;0.00;;;10.40;99.90;;;;;;5042896;28;20132;-65
2022/03/24 08:42:12;;;;;;;0.00;0.00;;;10.60;99.90;;;;;;5025439;28;20496;-66
2022/03/24 08:44:38;;;;;;;0.10;0.10;;;10.60;99.90;;;;;;5042284;28;20049;-66
2022/03/24 08:47:05;;;;;;;0.00;0.00;;;10.70;99.90;;;;;;5037712;28;20037;-64
2022/03/24 08:49:31;;;;;;;0.00;0.00;;;10.80;99.90;;;;;;5017867;28;20128;-65
2022/03/24 08:51:57;;;;;;;0.00;0.00;;;10.90;99.90;;;;;;5021544;28;20184;-65
2022/03/24 08:54:23;;;;;;;0.00;0.00;;;10.90;99.90;;;;;;5016173;28;20053;-66
2022/03/24 08:56:48;;;;;;;0.00;0.00;;;11.10;99.90;;;;;;5042149;28;20064;-65
2022/03/24 08:59:14;;;;;;;0.00;0.00;;;11.30;99.90;;;;;;5042421;28;20041;-65
2022/03/24 09:01:41;;;;;;;0.00;0.00;;;11.40;99.90;;;;;;5037793;28;20040;-65
2022/03/24 09:04:07;;;;;;;0.00;0.00;;;11.50;99.90;;;;;;5034314;28;20055;-64
2022/03/24 09:06:33;;;;;;;0.00;0.00;;;11.60;99.90;;;;;;5041972;28;20045;-66
2022/03/24 09:08:58;;;;;;;0.00;0.00;;;11.80;99.90;;;;;;5041791;28;20071;-65
2022/03/24 09:11:24;;;;;;;0.30;0.30;;;12.20;99.90;;;;;;5041314;28;20268;-68
2022/03/24 09:13:51;;;;;;;0.00;0.00;;;13.30;99.90;;;;;;5041803;28;20535;-64
2022/03/24 09:16:17;;;;;;;0.00;0.00;;;13.60;99.90;;;;;;5042230;28;20044;-64
2022/03/24 09:18:43;;;;;;;0.00;0.00;;;14.30;99.90;;;;;;5041984;28;20100;-64
2022/03/24 09:21:09;;;;;;;0.00;0.00;;;14.90;99.90;;;;;;5041018;28;20072;-64
2022/03/24 09:23:35;;;;;;;0.00;0.00;;;15.30;99.90;;;;;;5024255;28;20495;-63
2022/03/24 09:26:01;;;;;;;0.00;0.00;;;15.70;99.90;;;;;;5041962;28;20029;-64
2022/03/24 09:28:27;;;;;;;0.00;0.00;;;16.10;99.90;;;;;;5042094;28;20063;-64
2022/03/24 09:30:55;;;;;;;0.00;0.00;;;16.30;99.90;;;;;;5041520;28;20482;-64
2022/03/24 09:33:21;;;;;;;0.00;0.00;;;16.50;99.90;;;;;;5042004;28;20132;-64
2022/03/24 09:35:48;;;;;;;0.00;0.00;;;16.90;99.90;;;;;;5040834;28;20158;-65
2022/03/24 09:38:14;;;;;;;0.00;0.00;;;17.20;99.90;;;;;;5041381;28;20047;-64
2022/03/24 09:40:40;;;;;;;0.00;0.00;;;17.50;99.90;;;;;;5041469;28;20041;-64
2022/03/24 09:43:07;;;;;;;0.00;0.00;;;17.60;99.90;;;;;;5041773;28;20045;-64
2022/03/24 09:45:33;;;;;;;0.00;0.00;;;17.90;99.90;;;;;;5042294;28;20069;-64
2022/03/24 09:47:58;;;;;;;0.00;0.00;;;18.10;99.90;;;;;;5041275;28;20087;-64
2022/03/24 09:50:25;;;;;;;0.00;0.00;;;18.20;99.90;;;;;;5041607;28;20052;-64
2022/03/24 09:52:52;;;;;;;0.00;0.00;;;18.40;99.90;;;;;;5041686;28;20124;-63
2022/03/24 09:55:18;;;;;;;0.00;0.00;;;18.40;99.90;;;;;;5041672;28;20049;-64
2022/03/24 09:57:46;;;;;;;0.00;0.00;;;18.60;99.90;;;;;;5041680;28;20037;-63
2022/03/24 10:00:12;;;;;;;0.00;0.00;;;18.70;99.90;;;;;;5042208;28;20411;-64
2022/03/24 10:02:38;;;;;;;0.00;0.00;;;18.70;99.90;;;;;;5014538;28;20060;-64
2022/03/24 10:05:06;;;;;;;0.00;0.00;;;18.70;99.90;;;;;;5020797;28;20037;-64
2022/03/24 10:07:51;;;;;;;0.15;0.15;;;18.80;99.90;;;;;;5022739;28;20057;-64
2022/03/24 10:10:24;;;;;;;0.25;0.20;;;18.80;99.90;;;;;;5021636;28;20068;-64
2022/03/24 10:12:51;;;;;;;0.00;0.00;;;18.90;99.90;;;;;;5021596;28;20419;-63
2022/03/24 10:15:17;;;;;;;0.20;0.20;;;19.10;99.90;;;;;;5021765;28;20049;-63
2022/03/24 10:17:54;;;;;;;0.00;0.00;;;19.10;99.90;;;;;;5021353;28;20049;-64
2022/03/24 10:20:21;;;;;;;0.10;0.10;;;19.10;99.90;;;;;;5021339;28;20682;-64
2022/03/24 10:22:58;;;;;;;0.08;0.05;;;19.10;99.90;;;;;;5021408;28;20052;-64
2022/03/24 10:25:27;;;;;;;0.00;0.00;;;18.80;99.90;;;;;;5021926;28;20136;-64
2022/03/24 10:28:06;;;;;;;0.00;0.00;;;19.10;99.90;;;;;;5021792;28;20050;-63
2022/03/24 10:30:58;;;;;;;0.00;0.00;;;19.30;99.90;;;;;;5021848;28;20045;-63
2022/03/24 10:33:34;;;;;;;0.00;0.00;;;19.50;99.90;;;;;;5021604;28;20102;-62
2022/03/24 10:36:12;;;;;;;0.00;0.00;;;19.50;99.90;;;;;;5020953;28;20100;-64
2022/03/24 10:38:41;;;;;;;0.00;0.00;;;19.70;99.90;;;;;;5006062;28;20137;-64
2022/03/24 10:41:17;;;;;;;0.00;0.00;;;19.70;99.90;;;;;;5025457;28;20041;-64
2022/03/24 10:43:43;;;;;;;0.00;0.00;;;19.80;99.90;;;;;;5025022;28;20088;-65
2022/03/24 10:46:18;;;;;;;0.00;0.00;;;19.80;99.90;;;;;;5025750;28;20056;-65
2022/03/24 10:48:47;;;;;;;0.20;0.20;;;19.80;99.90;;;;;;5024451;28;20041;-64
2022/03/24 10:51:31;;;;;;;0.00;0.00;;;20.00;99.90;;;;;;5023527;28;20092;-63
2022/03/24 10:54:13;;;;;;;0.00;0.00;;;20.10;99.90;;;;;;5006560;28;20396;-63
2022/03/24 10:56:52;;;;;;;0.00;0.00;;;20.40;99.90;;;;;;5025092;28;20081;-63
2022/03/24 10:59:19;;;;;;;0.00;0.00;;;20.40;99.90;;;;;;5024696;28;20046;-63
2022/03/24 11:01:46;;;;;;;0.00;0.00;;;20.50;99.90;;;;;;5029123;28;20050;-63
2022/03/24 11:04:13;;;;;;;0.00;0.00;;;20.60;99.90;;;;;;5031799;28;20049;-63
2022/03/24 11:06:48;;;;;;;0.00;0.00;;;20.80;99.90;;;;;;5024056;28;20120;-64
2022/03/24 11:09:24;;;;;;;0.10;0.10;;;20.70;99.90;;;;;;5025258;28;20065;-64
2022/03/24 11:12:27;;;;;;;0.00;0.00;;;20.80;99.90;;;;;;5024660;28;20132;-63
2022/03/24 11:14:58;;;;;;;0.00;0.00;;;20.90;99.90;;;;;;5006314;28;20420;-63
2022/03/24 11:17:25;;;;;;;0.08;0.08;;;20.90;99.90;;;;;;5025259;28;20046;-64
2022/03/24 11:20:04;;;;;;;0.00;0.00;;;21.00;99.90;;;;;;5023563;28;20114;-65
2022/03/24 11:22:39;;;;;;;0.17;0.10;;;21.10;99.90;;;;;;5007490;28;20049;-64
2022/03/24 11:25:05;;;;;;;0.03;0.03;;;21.20;99.90;;;;;;5024116;28;20045;-63
2022/03/24 11:27:32;;;;;;;0.00;0.00;;;21.20;99.90;;;;;;5024858;28;20050;-64
2022/03/24 11:29:58;;;;;;;0.00;0.00;;;21.50;99.90;;;;;;5024323;28;20033;-64
2022/03/24 11:32:24;;;;;;;0.40;0.40;;;21.60;99.90;;;;;;5024226;28;20037;-64
2022/03/24 11:34:53;;;;;;;0.00;0.00;;;21.60;99.90;;;;;;5023396;28;20053;-64
2022/03/24 11:37:19;;;;;;;1.35;0.35;;;21.80;99.90;;;;;;5023584;28;20407;-64
2022/03/24 11:40:07;;;;;;;0.00;0.00;;;21.80;99.90;;;;;;5022852;28;20498;-64
2022/03/24 11:42:38;;;;;;;0.00;0.00;;;21.80;99.70;;;;;;5023718;28;20045;-64
2022/03/24 11:45:12;;;;;;;0.10;0.10;;;21.90;99.90;;;;;;5024523;28;20045;-64
2022/03/24 11:47:54;;;;;;;0.03;0.03;;;21.80;99.60;;;;;;5024256;28;20120;-64
2022/03/24 11:50:41;;;;;;;0.00;0.00;;;21.90;99.90;;;;;;5022686;28;20045;-64
2022/03/24 11:53:15;;;;;;;0.28;0.10;;;21.80;99.90;;;;;;5024181;28;20054;-63
2022/03/24 11:56:04;;;;;;;0.00;0.00;;;21.70;99.90;;;;;;5006120;28;20146;-64
2022/03/24 11:58:31;;;;;;;0.00;0.00;;;21.60;98.40;;;;;;5024163;28;20042;-63
2022/03/24 12:01:17;;;;;;;0.17;0.13;;;21.60;99.90;;;;;;5025661;28;20053;-63
2022/03/24 12:03:49;;;;;;;0.00;0.00;;;21.50;98.30;;;;;;5023124;28;20048;-63
2022/03/24 12:06:18;;;;;;;0.00;0.00;;;21.20;98.20;;;;;;5023365;28;20092;-64
2022/03/24 12:08:59;;;;;;;0.00;0.00;;;21.10;97.60;;;;;;5022822;28;20034;-63
2022/03/24 12:11:31;;;;;;;0.00;0.00;;;21.10;97.10;;;;;;5034456;28;20049;-64
2022/03/24 12:14:02;;;;;;;0.00;0.00;;;21.10;99.90;;;;;;5042581;28;20053;-64
2022/03/24 12:16:29;;;;;;;0.00;0.00;;;21.20;98.10;;;;;;5042782;28;20048;-64
2022/03/24 12:18:58;;;;;;;0.00;0.00;;;21.20;96.90;;;;;;5043077;28;20068;-63
2022/03/24 12:21:28;;;;;;;0.00;0.00;;;21.40;96.60;;;;;;5040606;28;20045;-63
2022/03/24 12:24:09;;;;;;;0.00;0.00;;;21.30;96.20;;;;;;5041429;28;20073;-63
2022/03/24 12:26:39;;;;;;;0.00;0.00;;;21.30;96.80;;;;;;5042967;28;20052;-62
2022/03/24 12:29:11;;;;;;;0.10;0.10;;;21.00;96.50;;;;;;5042450;28;20060;-63
2022/03/24 12:32:09;;;;;;;0.00;0.00;;;20.90;97.60;;;;;;5042611;28;20049;-64
2022/03/24 12:34:38;;;;;;;0.00;0.00;;;20.70;98.20;;;;;;5036078;28;20419;-63
2022/03/24 12:37:30;;;;;;;0.00;0.00;;;20.70;98.50;;;;;;5058196;28;20097;-63
2022/03/24 12:40:11;;;;;;;0.00;0.00;;;20.80;99.40;;;;;;5034718;28;20143;-63
2022/03/24 12:42:43;;;;;;;0.00;0.00;;;20.80;99.50;;;;;;5063142;28;20054;-63
2022/03/24 12:45:11;;;;;;;0.00;0.00;;;20.60;99.90;;;;;;5063304;28;20048;-63
2022/03/24 12:47:37;;;;;;;0.00;0.00;;;20.50;99.90;;;;;;5063404;28;20386;-63
2022/03/24 12:50:29;;;;;;;0.00;0.00;;;20.50;99.90;;;;;;5062737;28;20048;-64
2022/03/24 12:52:56;;;;;;;0.00;0.00;;;20.50;99.90;;;;;;5052940;28;20143;-63
2022/03/24 12:55:27;;;;;;;0.00;0.00;;;20.30;99.90;;;;;;5061796;28;20048;-66
2022/03/24 12:58:12;;;;;;;0.20;0.03;;;20.30;99.90;;;;;;5061745;28;20457;-59
2022/03/24 13:00:40;;;;;;;;;;;20.20;99.90;;;;;;5060819;28;20056;-63
2022/03/24 13:03:06;;;;;;;0.00;0.00;;;20.20;99.90;;;;;;5034101;28;20577;-60